Time;durP1;ratioP1;P1;durP2;ratioP2;P2;SDS_P1;SDS_P2;PMS_P1;PMS_P2;Temp;Humidity;BMP_temperature;BMP_pressure;BME280_temperature;BME280_humidity;BME280_pressure;Samples;Min_cycle;Max_cycle;Signal;HPM_P1;HPM_P2
2024/01/31 00:00:47;;;;;;;;;;;2.10;99.90;;;;;;5075913;28;19925;-76
2024/01/31 00:03:15;;;;;;;;;;;2.20;99.90;;;;;;5075984;28;19925;-76
2024/01/31 00:05:41;;;;;;;;;;;2.10;99.90;;;;;;5075961;28;19999;-76
2024/01/31 00:08:08;;;;;;;;;;;2.10;99.90;;;;;;5075905;28;19931;-75
2024/01/31 00:10:34;;;;;;;;;;;2.10;99.90;;;;;;5075366;28;19947;-76
2024/01/31 00:13:01;;;;;;;;;;;2.10;99.90;;;;;;5075834;28;20306;-76
2024/01/31 00:15:27;;;;;;;;;;;2.10;99.90;;;;;;5076129;28;19932;-76
2024/01/31 00:17:54;;;;;;;;;;;2.10;99.90;;;;;;5076001;28;19924;-75
2024/01/31 00:20:22;;;;;;;;;;;2.10;99.90;;;;;;5075753;28;19990;-75
2024/01/31 00:22:48;;;;;;;;;;;2.20;99.90;;;;;;5075279;28;20446;-76
2024/01/31 00:25:15;;;;;;;;;;;2.10;99.90;;;;;;5075265;28;19925;-75
2024/01/31 00:27:42;;;;;;;;;;;2.20;99.90;;;;;;5075338;28;19925;-75
2024/01/31 00:30:10;;;;;;;;;;;2.10;99.90;;;;;;5075277;28;19924;-75
2024/01/31 00:32:36;;;;;;;;;;;2.10;99.90;;;;;;5075261;28;19975;-75
2024/01/31 00:35:03;;;;;;;;;;;2.00;99.90;;;;;;5075117;28;19924;-75
2024/01/31 00:37:31;;;;;;;;;;;1.90;99.90;;;;;;5075277;28;19924;-75
2024/01/31 00:39:57;;;;;;;;;;;1.90;99.90;;;;;;5075028;28;19928;-75
2024/01/31 00:42:24;;;;;;;;;;;1.90;99.90;;;;;;5075090;28;19928;-75
2024/01/31 00:44:50;;;;;;;;;;;1.80;99.90;;;;;;5075176;28;19931;-75
2024/01/31 00:47:17;;;;;;;;;;;1.80;99.90;;;;;;5074891;28;19974;-77
2024/01/31 00:49:43;;;;;;;;;;;1.70;99.90;;;;;;5074585;28;20435;-76
2024/01/31 00:52:10;;;;;;;;;;;1.70;99.90;;;;;;5074824;28;19925;-76
2024/01/31 00:54:38;;;;;;;;;;;1.70;99.90;;;;;;5074822;28;19925;-77
2024/01/31 00:57:05;;;;;;;;;;;1.70;99.90;;;;;;5075332;28;19924;-77
2024/01/31 00:59:31;;;;;;;;;;;1.70;99.90;;;;;;5076069;28;19964;-77
2024/01/31 01:01:58;;;;;;;;;;;1.70;99.90;;;;;;5075147;28;19931;-76
2024/01/31 01:04:24;;;;;;;;;;;1.70;99.90;;;;;;5074369;28;20308;-76
2024/01/31 01:06:51;;;;;;;;;;;1.70;99.90;;;;;;5074412;28;20377;-76
2024/01/31 01:09:17;;;;;;;;;;;1.70;99.90;;;;;;5074259;28;19928;-76
2024/01/31 01:11:45;;;;;;;;;;;1.70;99.90;;;;;;5074101;28;20373;-76
2024/01/31 01:14:12;;;;;;;;;;;1.70;99.90;;;;;;5074405;28;19925;-76
2024/01/31 01:16:38;;;;;;;;;;;1.70;99.90;;;;;;5074660;28;19925;-76
2024/01/31 01:19:05;;;;;;;;;;;1.80;99.90;;;;;;5074340;28;19931;-76
2024/01/31 01:21:31;;;;;;;;;;;1.80;99.90;;;;;;5073624;28;20337;-76
2024/01/31 01:23:58;;;;;;;;;;;1.80;99.90;;;;;;5074298;28;19925;-76
2024/01/31 01:26:25;;;;;;;;;;;1.80;99.90;;;;;;5074363;28;19929;-76
2024/01/31 01:28:52;;;;;;;;;;;1.80;99.90;;;;;;5074465;28;19950;-76
2024/01/31 01:31:19;;;;;;;;;;;1.80;99.90;;;;;;5074157;28;19925;-76
2024/01/31 01:33:45;;;;;;;;;;;1.80;99.90;;;;;;5073819;28;19925;-76
2024/01/31 01:36:12;;;;;;;;;;;1.80;99.90;;;;;;5074273;28;19925;-76
2024/01/31 01:38:39;;;;;;;;;;;1.80;99.90;;;;;;5074126;28;19925;-76
2024/01/31 01:41:05;;;;;;;;;;;1.80;99.90;;;;;;5073692;28;20412;-76
2024/01/31 01:43:32;;;;;;;;;;;1.70;99.90;;;;;;5073997;28;19929;-76
2024/01/31 01:46:04;;;;;;;;;;;1.70;99.90;;;;;;5074017;28;20030;-76
2024/01/31 01:48:30;;;;;;;;;;;1.70;99.90;;;;;;5074076;28;20338;-76
2024/01/31 01:50:57;;;;;;;;;;;1.70;99.90;;;;;;5073567;28;20381;-76
2024/01/31 01:53:23;;;;;;;;;;;1.70;99.90;;;;;;5074188;28;19928;-76
2024/01/31 01:55:50;;;;;;;;;;;1.70;99.90;;;;;;5073915;28;19931;-77
2024/01/31 01:58:17;;;;;;;;;;;1.70;99.90;;;;;;5073827;28;19928;-77
2024/01/31 02:00:45;;;;;;;;;;;1.70;99.90;;;;;;5073888;28;19931;-76
2024/01/31 02:03:14;;;;;;;;;;;1.70;99.90;;;;;;5073936;28;19924;-77
2024/01/31 02:05:41;;;;;;;;;;;1.70;99.90;;;;;;5074109;28;19928;-77
2024/01/31 02:08:09;;;;;;;;;;;1.70;99.90;;;;;;5074147;28;19924;-77
2024/01/31 02:10:35;;;;;;;;;;;1.60;99.90;;;;;;5073872;28;19928;-77
2024/01/31 02:13:02;;;;;;;;;;;1.60;99.90;;;;;;5074485;28;19948;-77
2024/01/31 02:15:28;;;;;;;;;;;1.60;99.90;;;;;;5073479;28;19928;-77
2024/01/31 02:17:55;;;;;;;;;;;1.60;99.90;;;;;;5073507;28;19924;-77
2024/01/31 02:20:23;;;;;;;;;;;1.70;99.90;;;;;;5073929;28;19933;-77
2024/01/31 02:22:52;;;;;;;;;;;1.70;99.90;;;;;;5073156;28;19932;-77
2024/01/31 02:25:18;;;;;;;;;;;1.70;99.90;;;;;;5073528;28;19925;-77
2024/01/31 02:27:45;;;;;;;;;;;1.70;99.90;;;;;;5073202;28;19932;-76
2024/01/31 02:30:12;;;;;;;;;;;1.70;99.90;;;;;;5075465;28;19924;-77
2024/01/31 02:32:38;;;;;;;;;;;1.70;99.90;;;;;;5077092;28;19975;-77
2024/01/31 02:35:05;;;;;;;;;;;1.70;99.90;;;;;;5079438;28;19924;-77
2024/01/31 02:37:32;;;;;;;;;;;1.60;99.90;;;;;;5077457;28;19925;-77
2024/01/31 02:40:00;;;;;;;;;;;1.60;99.90;;;;;;5076632;28;20297;-76
2024/01/31 02:42:27;;;;;;;;;;;1.50;99.90;;;;;;5076579;28;20397;-76
2024/01/31 02:44:54;;;;;;;;;;;1.50;99.90;;;;;;5077024;28;19931;-75
2024/01/31 02:47:20;;;;;;;;;;;1.40;99.90;;;;;;5077825;28;19924;-76
2024/01/31 02:49:47;;;;;;;;;;;1.40;99.90;;;;;;5076831;28;19932;-76
2024/01/31 02:52:13;;;;;;;;;;;1.30;99.90;;;;;;5076624;28;19924;-76
2024/01/31 02:54:40;;;;;;;;;;;1.20;99.90;;;;;;5076990;28;19931;-77
2024/01/31 02:57:08;;;;;;;;;;;1.20;99.90;;;;;;5076645;28;19944;-76
2024/01/31 02:59:34;;;;;;;;;;;1.10;99.90;;;;;;5076635;28;19928;-76
2024/01/31 03:02:01;;;;;;;;;;;1.10;99.90;;;;;;5076658;28;19951;-77
2024/01/31 03:04:28;;;;;;;;;;;1.00;99.90;;;;;;5076776;28;19975;-77
2024/01/31 03:06:54;;;;;;;;;;;0.90;99.90;;;;;;5077161;28;20023;-77
2024/01/31 03:09:21;;;;;;;;;;;0.90;99.90;;;;;;5077636;28;19924;-77
2024/01/31 03:11:48;;;;;;;;;;;0.80;99.90;;;;;;5076382;28;19960;-77
2024/01/31 03:14:16;;;;;;;;;;;0.80;99.90;;;;;;5077540;28;19928;-77
2024/01/31 03:16:42;;;;;;;;;;;0.80;99.90;;;;;;5076892;28;19931;-77
2024/01/31 03:19:09;;;;;;;;;;;0.70;99.90;;;;;;5077111;28;19924;-79
2024/01/31 03:21:35;;;;;;;;;;;0.80;99.90;;;;;;5076607;28;19924;-75
2024/01/31 03:24:02;;;;;;;;;;;0.70;99.90;;;;;;5076131;28;19932;-75
2024/01/31 03:26:29;;;;;;;;;;;0.70;99.90;;;;;;5076033;28;19924;-76
2024/01/31 03:28:55;;;;;;;;;;;0.60;99.90;;;;;;5076085;28;19925;-75
2024/01/31 03:31:23;;;;;;;;;;;0.60;99.90;;;;;;5075874;28;19924;-75
2024/01/31 03:33:50;;;;;;;;;;;0.60;99.90;;;;;;5075932;28;19928;-76
2024/01/31 03:36:16;;;;;;;;;;;0.50;99.90;;;;;;5075654;28;20401;-76
2024/01/31 03:38:43;;;;;;;;;;;0.50;99.90;;;;;;5075868;28;19924;-76
2024/01/31 03:41:10;;;;;;;;;;;0.50;99.90;;;;;;5075755;28;19946;-75
2024/01/31 03:43:36;;;;;;;;;;;0.50;99.90;;;;;;5075427;28;20416;-76
2024/01/31 03:46:05;;;;;;;;;;;0.50;99.90;;;;;;5074741;28;20376;-76
2024/01/31 03:48:33;;;;;;;;;;;0.50;99.90;;;;;;5075931;28;19964;-76
2024/01/31 03:50:59;;;;;;;;;;;0.50;99.90;;;;;;5075465;28;19947;-75
2024/01/31 03:53:26;;;;;;;;;;;0.50;99.90;;;;;;5075569;28;19928;-76
2024/01/31 03:55:53;;;;;;;;;;;0.50;99.90;;;;;;5075187;28;20355;-76
2024/01/31 03:58:19;;;;;;;;;;;0.50;99.90;;;;;;5075549;28;19931;-76
2024/01/31 04:00:46;;;;;;;;;;;0.50;99.90;;;;;;5075568;28;19925;-74
2024/01/31 04:03:12;;;;;;;;;;;0.50;99.90;;;;;;5075392;28;19974;-75
2024/01/31 04:05:40;;;;;;;;;;;0.40;99.90;;;;;;5075349;28;19929;-76
2024/01/31 04:08:07;;;;;;;;;;;0.30;99.90;;;;;;5075368;28;20298;-76
2024/01/31 04:10:33;;;;;;;;;;;0.40;99.90;;;;;;5075204;28;19925;-76
2024/01/31 04:13:00;;;;;;;;;;;0.30;99.90;;;;;;5075165;28;19932;-76
2024/01/31 04:15:27;;;;;;;;;;;0.30;99.90;;;;;;5075271;28;19925;-75
2024/01/31 04:17:53;;;;;;;;;;;0.30;99.90;;;;;;5075334;28;20027;-75
2024/01/31 04:20:20;;;;;;;;;;;0.30;99.90;;;;;;5074759;28;20285;-75
2024/01/31 04:22:48;;;;;;;;;;;0.30;99.90;;;;;;5075513;28;19931;-76
2024/01/31 04:25:15;;;;;;;;;;;0.20;99.90;;;;;;5077523;28;19924;-75
2024/01/31 04:27:42;;;;;;;;;;;0.30;99.90;;;;;;5075454;28;19925;-75
2024/01/31 04:30:10;;;;;;;;;;;0.20;99.90;;;;;;5075305;28;19929;-75
2024/01/31 04:32:36;;;;;;;;;;;0.20;99.90;;;;;;5074436;28;19940;-75
2024/01/31 04:35:03;;;;;;;;;;;0.20;99.90;;;;;;5074517;28;19924;-75
2024/01/31 04:37:29;;;;;;;;;;;0.20;99.90;;;;;;5074646;28;19924;-76
2024/01/31 04:39:57;;;;;;;;;;;0.20;99.90;;;;;;5074562;28;19974;-75
2024/01/31 04:42:24;;;;;;;;;;;0.20;99.90;;;;;;5074377;28;20297;-75
2024/01/31 04:44:50;;;;;;;;;;;0.10;99.90;;;;;;5074215;28;20255;-75
2024/01/31 04:47:17;;;;;;;;;;;0.10;99.90;;;;;;5074480;28;19928;-75
2024/01/31 04:49:43;;;;;;;;;;;0.10;99.90;;;;;;5074415;28;19924;-76
2024/01/31 04:52:11;;;;;;;;;;;0.10;99.90;;;;;;5074396;28;19931;-76
2024/01/31 04:54:38;;;;;;;;;;;0.10;99.90;;;;;;5074660;28;19974;-75
2024/01/31 04:57:06;;;;;;;;;;;0.00;99.90;;;;;;5073387;28;19928;-75
2024/01/31 04:59:36;;;;;;;;;;;0.00;99.90;;;;;;5074354;28;19931;-75
2024/01/31 05:02:03;;;;;;;;;;;0.00;99.90;;;;;;5074175;28;19931;-75
2024/01/31 05:04:29;;;;;;;;;;;0.00;99.90;;;;;;5074144;28;19928;-75
2024/01/31 05:06:56;;;;;;;;;;;-0.10;99.90;;;;;;5074140;28;19925;-75
2024/01/31 05:09:22;;;;;;;;;;;0.00;99.90;;;;;;5074560;28;19947;-75
2024/01/31 05:11:49;;;;;;;;;;;-0.10;99.90;;;;;;5097290;22;19924;-72
2024/01/31 05:14:17;;;;;;;;;;;-0.10;99.90;;;;;;5074414;28;19932;-73
2024/01/31 05:16:43;;;;;;;;;;;-0.10;99.90;;;;;;5074320;28;19928;-73
2024/01/31 05:19:11;;;;;;;;;;;-0.10;99.90;;;;;;5074205;28;20388;-76
2024/01/31 05:21:44;;;;;;;;;;;-0.10;99.90;;;;;;5074268;28;19924;-76
2024/01/31 05:24:10;;;;;;;;;;;-0.10;99.90;;;;;;5074324;28;19928;-76
2024/01/31 05:26:37;;;;;;;;;;;-0.10;99.90;;;;;;5074313;28;19974;-77
2024/01/31 05:29:03;;;;;;;;;;;-0.10;99.90;;;;;;5074521;28;20043;-77
2024/01/31 05:31:31;;;;;;;;;;;-0.10;99.90;;;;;;5073903;28;20313;-77
2024/01/31 05:33:57;;;;;;;;;;;-0.10;99.90;;;;;;5073953;28;19931;-77
2024/01/31 05:36:24;;;;;;;;;;;-0.20;99.90;;;;;;5074014;28;19928;-77
2024/01/31 05:38:51;;;;;;;;;;;-0.20;99.90;;;;;;5073992;28;19928;-77
2024/01/31 05:41:17;;;;;;;;;;;-0.20;99.90;;;;;;5073688;28;19924;-77
2024/01/31 05:43:44;;;;;;;;;;;-0.20;99.90;;;;;;5073866;28;19928;-77
2024/01/31 05:46:10;;;;;;;;;;;-0.20;99.90;;;;;;5074705;28;19928;-77
2024/01/31 05:48:38;;;;;;;;;;;-0.20;99.90;;;;;;5074144;28;19947;-76
2024/01/31 05:51:05;;;;;;;;;;;-0.20;99.90;;;;;;5074202;28;19931;-76
2024/01/31 05:53:31;;;;;;;;;;;-0.20;99.90;;;;;;5074558;28;19924;-76
2024/01/31 05:55:58;;;;;;;;;;;-0.30;99.90;;;;;;5074914;28;19924;-76
2024/01/31 05:58:24;;;;;;;;;;;-0.30;99.90;;;;;;5074064;28;19932;-76
2024/01/31 06:00:52;;;;;;;;;;;-0.30;99.90;;;;;;5074139;28;19925;-76
2024/01/31 06:03:18;;;;;;;;;;;-0.30;99.90;;;;;;5074140;28;19924;-76
2024/01/31 06:05:46;;;;;;;;;;;-0.30;99.90;;;;;;5076104;28;20479;-77
2024/01/31 06:08:12;;;;;;;;;;;-0.40;99.90;;;;;;5078032;28;19931;-76
2024/01/31 06:10:39;;;;;;;;;;;-0.40;99.90;;;;;;5081284;28;19924;-78
2024/01/31 06:13:06;;;;;;;;;;;-0.40;99.90;;;;;;5080406;28;19928;-78
2024/01/31 06:15:32;;;;;;;;;;;-0.40;99.90;;;;;;5080303;28;19925;-78
2024/01/31 06:17:59;;;;;;;;;;;-0.40;99.90;;;;;;5080451;28;19924;-78
2024/01/31 06:20:25;;;;;;;;;;;-0.40;99.90;;;;;;5084297;28;19924;-78
2024/01/31 06:22:53;;;;;;;;;;;-0.40;99.90;;;;;;5086681;28;19932;-78
2024/01/31 06:25:19;;;;;;;;;;;-0.40;99.90;;;;;;5086319;28;19924;-78
2024/01/31 06:27:46;;;;;;;;;;;-0.40;99.90;;;;;;5085029;28;19929;-77
2024/01/31 06:30:19;;;;;;;;;;;-0.40;99.90;;;;;;5082528;28;19983;-77
2024/01/31 06:32:47;;;;;;;;;;;-0.40;99.90;;;;;;5087062;28;19932;-77
2024/01/31 06:35:14;;;;;;;;;;;-0.40;99.90;;;;;;5093930;28;20002;-78
2024/01/31 06:37:40;;;;;;;;;;;-0.30;99.90;;;;;;5090253;28;19924;-78
2024/01/31 06:40:09;;;;;;;;;;;-0.30;99.90;;;;;;5084208;28;20336;-78
2024/01/31 06:42:35;;;;;;;;;;;-0.30;99.90;;;;;;5084668;28;19931;-77
2024/01/31 06:45:02;;;;;;;;;;;-0.30;99.90;;;;;;5083032;28;19931;-78
2024/01/31 06:47:29;;;;;;;;;;;-0.20;99.90;;;;;;5092952;28;19924;-78
2024/01/31 10:08:23;;;;;;;;;;;7.60;99.90;;;;;;5453434;22;20050;-76
2024/01/31 10:10:50;;;;;;;;;;;7.20;99.90;;;;;;5074030;28;19925;-76
2024/01/31 10:13:17;;;;;;;;;;;6.80;99.90;;;;;;5073405;28;19928;-76
2024/01/31 10:15:44;;;;;;;;;;;6.50;99.90;;;;;;5073423;28;19924;-75
2024/01/31 10:18:11;;;;;;;;;;;6.40;99.90;;;;;;5073185;28;19974;-75
2024/01/31 10:20:37;;;;;;;;;;;6.30;99.90;;;;;;5073418;28;19931;-75
2024/01/31 10:23:04;;;;;;;;;;;6.30;99.90;;;;;;5073115;28;19929;-75
2024/01/31 10:25:32;;;;;;;;;;;6.30;99.90;;;;;;5072955;28;20362;-75
2024/01/31 10:27:58;;;;;;;;;;;6.30;99.90;;;;;;5073107;28;19924;-75
2024/01/31 10:30:25;;;;;;;;;;;6.20;99.90;;;;;;5073185;28;19931;-75
2024/01/31 10:32:52;;;;;;;;;;;6.10;99.90;;;;;;5074433;28;19928;-75
2024/01/31 10:35:19;;;;;;;;;;;6.00;99.90;;;;;;5074014;28;19924;-75
2024/01/31 10:37:46;;;;;;;;;;;6.00;99.90;;;;;;5073470;28;19924;-75
2024/01/31 10:40:13;;;;;;;;;;;6.00;99.90;;;;;;5073049;28;19924;-75
2024/01/31 10:42:41;;;;;;;;;;;6.00;99.90;;;;;;5073154;28;19925;-75
2024/01/31 10:45:09;;;;;;;;;;;6.00;99.90;;;;;;5073036;28;19928;-75
2024/01/31 10:47:35;;;;;;;;;;;6.00;99.90;;;;;;5072906;28;19924;-75
2024/01/31 10:50:02;;;;;;;;;;;6.10;99.90;;;;;;5072915;28;19924;-75
2024/01/31 10:52:31;;;;;;;;;;;6.20;99.90;;;;;;5072967;28;19925;-75
2024/01/31 10:54:59;;;;;;;;;;;6.20;99.90;;;;;;5073662;28;19928;-75
2024/01/31 10:57:26;;;;;;;;;;;6.30;99.90;;;;;;5076669;28;19935;-75
2024/01/31 10:59:56;;;;;;;;;;;6.30;99.90;;;;;;5076948;28;20266;-75
2024/01/31 11:02:28;;;;;;;;;;;6.40;99.90;;;;;;5077195;28;19924;-75
2024/01/31 11:04:58;;;;;;;;;;;6.40;99.90;;;;;;5077721;28;20050;-75
2024/01/31 11:07:25;;;;;;;;;;;6.40;99.90;;;;;;5078334;28;19986;-75
2024/01/31 11:09:51;;;;;;;;;;;6.50;99.90;;;;;;5077230;28;20010;-75
2024/01/31 11:12:18;;;;;;;;;;;6.50;99.90;;;;;;5077555;28;19935;-75
2024/01/31 11:14:47;;;;;;;;;;;6.60;99.90;;;;;;5077444;28;20289;-76
2024/01/31 11:17:19;;;;;;;;;;;6.70;99.90;;;;;;5076872;28;19924;-76
2024/01/31 11:19:48;;;;;;;;;;;6.80;99.90;;;;;;5077945;28;20022;-76
2024/01/31 11:22:15;;;;;;;;;;;6.80;99.90;;;;;;5078252;28;19924;-76
2024/01/31 11:24:43;;;;;;;;;;;6.90;99.90;;;;;;5078109;28;19924;-76
2024/01/31 11:27:10;;;;;;;;;;;7.00;99.90;;;;;;5076952;28;19946;-75
2024/01/31 11:29:37;;;;;;;;;;;7.00;99.90;;;;;;5076205;28;20383;-75
2024/01/31 11:32:04;;;;;;;;;;;7.10;99.90;;;;;;5077071;28;20019;-75
2024/01/31 11:34:32;;;;;;;;;;;7.20;99.90;;;;;;5077796;28;19947;-76
2024/01/31 11:36:59;;;;;;;;;;;7.20;99.90;;;;;;5076934;28;20340;-75
2024/01/31 11:39:26;;;;;;;;;;;7.30;99.90;;;;;;5076663;28;19924;-75
2024/01/31 11:41:54;;;;;;;;;;;7.40;99.90;;;;;;5076576;28;19924;-75
2024/01/31 11:44:20;;;;;;;;;;;7.50;99.90;;;;;;5076308;28;20334;-75
2024/01/31 11:46:48;;;;;;;;;;;7.50;99.90;;;;;;5076821;28;19974;-76
2024/01/31 11:49:14;;;;;;;;;;;7.60;99.90;;;;;;5076731;28;20009;-76
2024/01/31 11:51:42;;;;;;;;;;;7.70;99.90;;;;;;5077594;28;19925;-76
2024/01/31 11:54:09;;;;;;;;;;;7.80;99.90;;;;;;5076410;28;20396;-76
2024/01/31 11:56:39;;;;;;;;;;;8.00;99.90;;;;;;5077327;28;19931;-75
2024/01/31 11:59:06;;;;;;;;;;;8.80;99.90;;;;;;5076858;28;19978;-75
2024/01/31 12:01:32;;;;;;;;;;;8.60;99.90;;;;;;5076931;28;19931;-75
2024/01/31 12:04:01;;;;;;;;;;;8.30;99.90;;;;;;5076601;28;19924;-75
2024/01/31 12:06:28;;;;;;;;;;;8.40;99.90;;;;;;5075735;28;19938;-75
2024/01/31 12:08:56;;;;;;;;;;;8.50;99.90;;;;;;5076408;28;20362;-75
2024/01/31 12:11:23;;;;;;;;;;;8.40;99.90;;;;;;5076128;28;19954;-75
2024/01/31 12:13:50;;;;;;;;;;;8.50;99.90;;;;;;5076741;28;19971;-75
2024/01/31 12:16:17;;;;;;;;;;;8.50;99.90;;;;;;5076808;28;20027;-75
2024/01/31 12:18:43;;;;;;;;;;;8.50;99.90;;;;;;5075724;28;19970;-76
2024/01/31 12:21:11;;;;;;;;;;;8.60;99.90;;;;;;5077319;28;19924;-76
2024/01/31 12:23:37;;;;;;;;;;;8.70;99.90;;;;;;5075327;28;19928;-75
2024/01/31 12:26:05;;;;;;;;;;;8.70;99.90;;;;;;5075097;28;19932;-75
2024/01/31 12:28:32;;;;;;;;;;;8.70;99.90;;;;;;5074896;28;19925;-76
2024/01/31 12:30:59;;;;;;;;;;;8.80;99.90;;;;;;5074950;28;19940;-76
2024/01/31 12:33:25;;;;;;;;;;;8.80;99.90;;;;;;5074818;28;19924;-77
2024/01/31 12:35:52;;;;;;;;;;;8.80;99.90;;;;;;5074727;28;19929;-76
2024/01/31 12:38:18;;;;;;;;;;;8.80;99.90;;;;;;5075159;28;19928;-76
2024/01/31 12:40:45;;;;;;;;;;;8.90;99.90;;;;;;5074839;28;20374;-76
2024/01/31 12:43:13;;;;;;;;;;;8.90;99.90;;;;;;5074927;28;19928;-75
2024/01/31 12:45:39;;;;;;;;;;;9.00;99.90;;;;;;5074557;28;19982;-75
2024/01/31 12:48:06;;;;;;;;;;;9.10;99.90;;;;;;5074682;28;19932;-75
2024/01/31 12:50:33;;;;;;;;;;;9.10;99.90;;;;;;5074551;28;19925;-75
2024/01/31 12:52:59;;;;;;;;;;;9.20;99.90;;;;;;5074727;28;19928;-75
2024/01/31 12:55:26;;;;;;;;;;;9.20;99.90;;;;;;5075273;28;19924;-75
2024/01/31 12:57:53;;;;;;;;;;;9.30;99.90;;;;;;5074742;28;19943;-76
2024/01/31 13:00:21;;;;;;;;;;;9.30;99.90;;;;;;5074255;28;19928;-75
2024/01/31 13:02:47;;;;;;;;;;;9.30;99.90;;;;;;5074267;28;19924;-75
2024/01/31 13:05:14;;;;;;;;;;;9.30;99.90;;;;;;5074317;28;19928;-75
2024/01/31 13:07:40;;;;;;;;;;;9.30;99.90;;;;;;5074812;28;19932;-76
2024/01/31 13:10:07;;;;;;;;;;;9.40;99.90;;;;;;5074659;28;19995;-76
2024/01/31 13:12:34;;;;;;;;;;;9.40;99.90;;;;;;5074182;28;19925;-75
2024/01/31 13:15:01;;;;;;;;;;;9.40;99.90;;;;;;5073859;28;19931;-74
2024/01/31 13:17:28;;;;;;;;;;;9.40;99.90;;;;;;5073379;28;19928;-75
2024/01/31 13:19:55;;;;;;;;;;;9.40;99.90;;;;;;5073865;28;19925;-75
2024/01/31 13:22:22;;;;;;;;;;;9.40;99.90;;;;;;5074002;28;19978;-75
2024/01/31 13:24:48;;;;;;;;;;;9.40;99.90;;;;;;5074085;28;19925;-76
2024/01/31 13:27:15;;;;;;;;;;;9.40;99.90;;;;;;5073785;28;19928;-76
2024/01/31 13:29:41;;;;;;;;;;;9.40;99.90;;;;;;5074292;28;19935;-76
2024/01/31 13:32:08;;;;;;;;;;;9.30;99.90;;;;;;5074524;28;19947;-76
2024/01/31 13:34:36;;;;;;;;;;;9.30;99.90;;;;;;5073466;28;20456;-75
2024/01/31 13:37:03;;;;;;;;;;;9.30;99.90;;;;;;5074361;28;19931;-75
2024/01/31 13:39:30;;;;;;;;;;;9.30;99.90;;;;;;5073857;28;20023;-74
2024/01/31 13:42:01;;;;;;;;;;;9.30;99.90;;;;;;5073716;28;19947;-73
2024/01/31 13:44:27;;;;;;;;;;;9.30;99.90;;;;;;5073713;28;20030;-73
2024/01/31 13:46:54;;;;;;;;;;;9.20;99.90;;;;;;5073382;28;19933;-73
2024/01/31 13:49:20;;;;;;;;;;;9.20;99.90;;;;;;5073410;28;20377;-73
2024/01/31 13:51:48;;;;;;;;;;;9.20;99.90;;;;;;5073730;28;19924;-73
2024/01/31 13:54:15;;;;;;;;;;;9.10;99.90;;;;;;5073632;28;19925;-73
2024/01/31 13:56:41;;;;;;;;;;;9.10;99.90;;;;;;5073478;28;20039;-73
2024/01/31 13:59:08;;;;;;;;;;;9.10;99.90;;;;;;5073509;28;19931;-73
2024/01/31 14:01:35;;;;;;;;;;;9.00;99.90;;;;;;5073334;28;19924;-73
2024/01/31 14:04:04;;;;;;;;;;;9.00;99.90;;;;;;5073771;28;19925;-74
2024/01/31 14:06:30;;;;;;;;;;;9.00;99.90;;;;;;5073957;28;19998;-74
2024/01/31 14:08:58;;;;;;;;;;;8.90;99.90;;;;;;5073877;28;19931;-73
2024/01/31 14:11:28;;;;;;;;;;;8.90;99.90;;;;;;5072975;28;19924;-72
2024/01/31 14:13:55;;;;;;;;;;;8.80;99.90;;;;;;5073541;28;20023;-72
2024/01/31 14:16:21;;;;;;;;;;;8.80;99.90;;;;;;5073202;28;19930;-72
2024/01/31 14:18:48;;;;;;;;;;;8.70;99.90;;;;;;5073118;28;19924;-72
2024/01/31 14:21:15;;;;;;;;;;;8.70;99.90;;;;;;5072853;28;20280;-72
2024/01/31 14:23:41;;;;;;;;;;;8.60;99.90;;;;;;5073139;28;20325;-72
2024/01/31 14:26:09;;;;;;;;;;;8.60;99.90;;;;;;5073208;28;19924;-72
2024/01/31 14:28:37;;;;;;;;;;;8.50;99.90;;;;;;5072966;28;19974;-72
2024/01/31 14:31:06;;;;;;;;;;;8.50;99.90;;;;;;5076849;28;20274;-73
2024/01/31 14:33:32;;;;;;;;;;;8.40;99.90;;;;;;5077175;28;19928;-74
2024/01/31 14:35:59;;;;;;;;;;;8.40;99.90;;;;;;5077248;28;19928;-73
2024/01/31 14:38:25;;;;;;;;;;;8.40;99.90;;;;;;5076967;28;19928;-74
2024/01/31 14:40:52;;;;;;;;;;;8.30;99.90;;;;;;5076778;28;19931;-74
2024/01/31 14:43:20;;;;;;;;;;;8.30;99.90;;;;;;5077462;28;20333;-73
2024/01/31 14:45:47;;;;;;;;;;;8.30;99.90;;;;;;5077873;28;19924;-74
2024/01/31 14:48:14;;;;;;;;;;;8.20;99.90;;;;;;5076880;28;19924;-74
2024/01/31 14:50:41;;;;;;;;;;;8.20;99.90;;;;;;5077112;28;19934;-74
2024/01/31 14:53:08;;;;;;;;;;;8.10;99.90;;;;;;5077158;28;19931;-73
2024/01/31 14:55:35;;;;;;;;;;;8.10;99.90;;;;;;5077210;28;19924;-74
2024/01/31 14:58:02;;;;;;;;;;;8.10;99.90;;;;;;5076518;28;19944;-74
2024/01/31 15:00:30;;;;;;;;;;;8.00;99.90;;;;;;5077139;28;19925;-74
2024/01/31 15:02:57;;;;;;;;;;;8.00;99.90;;;;;;5077616;28;19958;-74
2024/01/31 15:05:23;;;;;;;;;;;8.00;99.90;;;;;;5077211;28;19931;-73
2024/01/31 15:07:50;;;;;;;;;;;8.00;99.90;;;;;;5077117;28;19928;-74
2024/01/31 15:10:16;;;;;;;;;;;7.90;99.90;;;;;;5076488;28;19947;-73
2024/01/31 15:12:43;;;;;;;;;;;7.90;99.90;;;;;;5076285;28;19933;-72
2024/01/31 15:15:10;;;;;;;;;;;7.90;99.90;;;;;;5075852;28;20386;-72
2024/01/31 15:17:38;;;;;;;;;;;7.90;99.90;;;;;;5076382;28;20388;-72
2024/01/31 15:20:06;;;;;;;;;;;7.90;99.90;;;;;;5076752;28;19931;-73
2024/01/31 15:22:33;;;;;;;;;;;7.90;99.90;;;;;;5077002;28;19925;-72
2024/01/31 15:24:59;;;;;;;;;;;7.90;99.90;;;;;;5076924;28;20106;-72
2024/01/31 15:27:26;;;;;;;;;;;7.70;99.90;;;;;;5076737;28;20394;-73
2024/01/31 15:29:52;;;;;;;;;;;7.70;99.90;;;;;;5077418;28;20412;-73
2024/01/31 15:32:19;;;;;;;;;;;7.70;99.90;;;;;;5077616;28;19931;-72
2024/01/31 15:34:47;;;;;;;;;;;7.70;99.90;;;;;;5077206;28;19924;-73
2024/01/31 15:37:13;;;;;;;;;;;7.60;99.90;;;;;;5077206;28;19924;-73
2024/01/31 15:39:40;;;;;;;;;;;7.50;99.90;;;;;;5077411;28;19924;-71
2024/01/31 15:42:07;;;;;;;;;;;7.40;99.90;;;;;;5076632;28;19958;-72
2024/01/31 15:44:33;;;;;;;;;;;7.40;99.90;;;;;;5077662;28;19928;-71
2024/01/31 15:47:00;;;;;;;;;;;7.30;99.90;;;;;;5077502;28;19931;-73
2024/01/31 15:49:30;;;;;;;;;;;7.20;99.90;;;;;;5077030;28;19925;-73
2024/01/31 15:51:58;;;;;;;;;;;7.10;99.90;;;;;;5077080;28;19925;-73
2024/01/31 15:54:24;;;;;;;;;;;7.00;99.90;;;;;;5075744;28;19924;-73
2024/01/31 15:56:52;;;;;;;;;;;6.80;99.90;;;;;;5076444;28;19924;-72
2024/01/31 15:59:18;;;;;;;;;;;6.80;99.90;;;;;;5075489;28;20381;-72
2024/01/31 16:01:45;;;;;;;;;;;6.60;99.90;;;;;;5076277;28;19924;-72
2024/01/31 16:04:11;;;;;;;;;;;6.50;99.90;;;;;;5075562;28;19936;-72
2024/01/31 16:06:48;;;;;;;;;;;6.40;99.90;;;;;;5075352;28;19932;-72
2024/01/31 16:09:16;;;;;;;;;;;6.20;99.90;;;;;;5075391;28;19968;-72
2024/01/31 16:11:42;;;;;;;;;;;6.10;99.90;;;;;;5075513;28;19925;-72
2024/01/31 16:14:09;;;;;;;;;;;6.00;99.90;;;;;;5075392;28;19924;-72
2024/01/31 16:16:35;;;;;;;;;;;5.80;99.90;;;;;;5075270;28;20274;-72
2024/01/31 16:19:03;;;;;;;;;;;5.70;99.90;;;;;;5075953;28;19955;-73
2024/01/31 16:21:29;;;;;;;;;;;5.60;99.90;;;;;;5075910;28;19924;-72
2024/01/31 16:23:56;;;;;;;;;;;5.50;99.90;;;;;;5075576;28;19924;-72
2024/01/31 16:26:24;;;;;;;;;;;5.40;99.90;;;;;;5075189;28;19928;-72
2024/01/31 16:28:50;;;;;;;;;;;5.40;99.90;;;;;;5075094;28;19931;-72
2024/01/31 16:31:18;;;;;;;;;;;5.20;99.90;;;;;;5075030;28;19924;-73
2024/01/31 16:33:44;;;;;;;;;;;5.10;99.90;;;;;;5075011;28;20293;-73
2024/01/31 16:36:17;;;;;;;;;;;4.90;99.90;;;;;;5075089;28;19932;-73
2024/01/31 16:38:44;;;;;;;;;;;4.90;99.90;;;;;;5074740;28;20377;-71
2024/01/31 16:41:16;;;;;;;;;;;4.80;99.90;;;;;;5074688;28;19924;-73
2024/01/31 16:43:44;;;;;;;;;;;4.80;99.90;;;;;;5074736;28;19954;-73
2024/01/31 16:46:10;;;;;;;;;;;4.70;99.90;;;;;;5074284;28;19928;-73
2024/01/31 16:48:37;;;;;;;;;;;4.60;99.90;;;;;;5074152;28;19932;-73
2024/01/31 16:51:04;;;;;;;;;;;4.60;99.90;;;;;;5074488;28;19928;-73
2024/01/31 16:53:30;;;;;;;;;;;4.50;99.90;;;;;;5074453;28;20336;-73
2024/01/31 16:55:57;;;;;;;;;;;4.40;99.90;;;;;;5074332;28;19924;-73
2024/01/31 16:58:23;;;;;;;;;;;4.70;99.90;;;;;;5074194;28;19931;-73
2024/01/31 17:00:52;;;;;;;;;;;4.30;99.90;;;;;;5074244;28;19924;-73
2024/01/31 17:03:18;;;;;;;;;;;4.20;99.90;;;;;;5074212;28;19928;-73
2024/01/31 17:05:45;;;;;;;;;;;4.20;99.90;;;;;;5074237;28;20024;-73
2024/01/31 17:08:11;;;;;;;;;;;4.10;99.90;;;;;;5073699;28;20389;-73
2024/01/31 17:10:38;;;;;;;;;;;4.10;99.90;;;;;;5074247;28;19991;-73
2024/01/31 17:13:04;;;;;;;;;;;4.00;99.90;;;;;;5074038;28;20382;-72
2024/01/31 17:15:31;;;;;;;;;;;3.90;99.90;;;;;;5073832;28;20394;-72
2024/01/31 17:17:59;;;;;;;;;;;3.90;99.90;;;;;;5074044;28;19924;-71
2024/01/31 17:20:25;;;;;;;;;;;3.90;99.90;;;;;;5073960;28;19932;-71
2024/01/31 17:22:52;;;;;;;;;;;3.90;99.90;;;;;;5073866;28;19925;-71
2024/01/31 17:25:18;;;;;;;;;;;3.90;99.90;;;;;;5073991;28;19948;-71
2024/01/31 17:27:45;;;;;;;;;;;3.90;99.90;;;;;;5073615;28;20397;-71
2024/01/31 17:30:12;;;;;;;;;;;3.80;99.90;;;;;;5073838;28;19924;-71
2024/01/31 17:32:38;;;;;;;;;;;3.70;99.90;;;;;;5073799;28;19925;-71
2024/01/31 17:35:07;;;;;;;;;;;3.70;99.90;;;;;;5073790;28;19974;-71
2024/01/31 17:37:33;;;;;;;;;;;3.70;99.90;;;;;;5073907;28;19972;-71
2024/01/31 17:39:59;;;;;;;;;;;3.60;99.90;;;;;;5073283;28;19978;-71
2024/01/31 17:42:27;;;;;;;;;;;3.60;99.90;;;;;;5073649;28;19928;-71
2024/01/31 17:44:53;;;;;;;;;;;3.60;99.90;;;;;;5074035;28;20319;-72